Time;durP1;ratioP1;P1;durP2;ratioP2;P2;SDS_P1;SDS_P2;PMS_P1;PMS_P2;Temp;Humidity;BMP_temperature;BMP_pressure;BME280_temperature;BME280_humidity;BME280_pressure;Samples;Min_cycle;Max_cycle;Signal;HPM_P1;HPM_P2
2021/01/15 00:00:08;;;;;;;12.73;6.70;;;;;;;-1.09;100.00;96229.63;5058674;28;20193;-71
2021/01/15 00:02:34;;;;;;;13.47;7.20;;;;;;;-1.15;100.00;96240.38;5059032;28;21186;-71
2021/01/15 00:05:00;;;;;;;14.23;6.93;;;;;;;-1.19;100.00;96238.94;5058919;28;20229;-70
2021/01/15 00:07:30;;;;;;;15.37;6.63;;;;;;;-1.03;100.00;96244.72;5059612;28;20254;-71
2021/01/15 00:09:56;;;;;;;16.87;6.67;;;;;;;-1.08;100.00;96241.63;5058876;28;20256;-71
2021/01/15 00:12:22;;;;;;;15.33;7.20;;;;;;;-1.13;100.00;96237.72;5058991;28;20204;-71
2021/01/15 00:14:48;;;;;;;11.23;6.20;;;;;;;-1.24;100.00;96227.28;5059452;28;20765;-70
2021/01/15 00:17:14;;;;;;;15.00;6.93;;;;;;;-1.23;100.00;96226.34;5058783;28;20283;-71
2021/01/15 00:19:40;;;;;;;11.67;5.90;;;;;;;-1.16;100.00;96222.41;5059054;28;20273;-71
2021/01/15 00:22:06;;;;;;;10.60;6.17;;;;;;;-1.15;100.00;96222.28;5058722;28;20202;-71
2021/01/15 00:24:33;;;;;;;11.57;6.00;;;;;;;-1.28;100.00;96225.84;5059494;28;20217;-71
2021/01/15 00:26:59;;;;;;;10.77;5.97;;;;;;;-1.19;100.00;96212.28;5057491;28;20213;-71
2021/01/15 00:29:27;;;;;;;12.40;6.50;;;;;;;-1.44;100.00;96222.69;5058514;28;20281;-71
2021/01/15 00:31:53;;;;;;;12.37;6.40;;;;;;;-1.35;100.00;96219.47;5058825;28;20310;-71
2021/01/15 00:34:19;;;;;;;12.83;6.27;;;;;;;-1.28;100.00;96222.44;5058740;28;20716;-71
2021/01/15 00:36:46;;;;;;;14.33;6.67;;;;;;;-1.20;100.00;96218.38;5057602;28;21220;-71
2021/01/15 00:39:14;;;;;;;12.40;6.13;;;;;;;-1.25;100.00;96219.66;5058823;28;20552;-71
2021/01/15 00:41:43;;;;;;;10.53;5.43;;;;;;;-1.37;100.00;96223.91;5058753;28;20216;-71
2021/01/15 00:44:10;;;;;;;10.87;5.23;;;;;;;-1.51;100.00;96225.78;5058277;28;20196;-71
2021/01/15 00:46:44;;;;;;;11.00;5.07;;;;;;;-1.66;100.00;96232.00;5057786;28;20239;-71
2021/01/15 00:49:11;;;;;;;9.50;5.07;;;;;;;-1.67;100.00;96230.34;5058342;28;20228;-71
2021/01/15 00:51:37;;;;;;;9.23;4.67;;;;;;;-1.65;100.00;96231.06;5058174;28;20208;-71
2021/01/15 00:54:05;;;;;;;9.90;4.80;;;;;;;-1.94;100.00;96234.78;5058819;28;20211;-71
2021/01/15 00:56:31;;;;;;;9.07;4.53;;;;;;;-1.97;100.00;96222.09;5057892;28;20217;-71
2021/01/15 00:58:58;;;;;;;16.60;5.20;;;;;;;-1.71;100.00;96234.06;5057997;28;20287;-71
2021/01/15 01:01:25;;;;;;;7.47;4.10;;;;;;;-1.84;100.00;96232.44;5058571;28;20204;-71
2021/01/15 01:03:52;;;;;;;9.97;4.43;;;;;;;-1.75;100.00;96223.09;5058389;28;20214;-71
2021/01/15 01:06:19;;;;;;;12.57;5.27;;;;;;;-1.68;100.00;96226.09;5057514;28;20228;-71
2021/01/15 01:08:46;;;;;;;12.27;5.07;;;;;;;-1.72;100.00;96224.66;5057710;28;20212;-71
2021/01/15 01:11:13;;;;;;;12.27;5.27;;;;;;;-1.92;100.00;96230.34;5057368;28;20243;-72
2021/01/15 01:13:40;;;;;;;11.80;5.73;;;;;;;-1.84;100.00;96228.09;5057872;28;20662;-72
2021/01/15 01:16:07;;;;;;;14.73;5.23;;;;;;;-1.87;100.00;96228.28;5057296;28;20221;-72
2021/01/15 01:18:34;;;;;;;13.50;5.33;;;;;;;-1.88;100.00;96224.06;5057835;28;20205;-72
2021/01/15 01:21:00;;;;;;;10.83;5.53;;;;;;;-2.31;100.00;96227.81;5058222;28;20690;-72
2021/01/15 01:23:26;;;;;;;11.87;5.13;;;;;;;-2.42;100.00;96228.63;5057651;28;20679;-72
2021/01/15 01:25:52;;;;;;;13.67;5.10;;;;;;;-2.63;100.00;96225.69;5056862;28;20223;-72
2021/01/15 01:28:19;;;;;;;10.50;5.30;;;;;;;-2.74;100.00;96243.59;5057725;28;20265;-72
2021/01/15 01:30:45;;;;;;;14.87;5.67;;;;;;;-2.69;100.00;96233.81;5058232;28;20322;-72
2021/01/15 01:33:12;;;;;;;11.60;5.13;;;;;;;-2.84;100.00;96241.69;5057254;28;20204;-72
2021/01/15 01:35:38;;;;;;;15.97;5.90;;;;;;;-2.77;100.00;96248.13;5056719;28;20226;-72
2021/01/15 01:38:04;;;;;;;11.03;4.67;;;;;;;-2.73;100.00;96237.50;5058253;28;20207;-72
2021/01/15 01:40:30;;;;;;;9.37;5.13;;;;;;;-2.65;100.00;96247.34;5056869;28;20201;-72
2021/01/15 01:42:56;;;;;;;9.93;4.80;;;;;;;-2.43;100.00;96245.03;5057710;28;20296;-72
2021/01/15 01:45:22;;;;;;;12.80;5.13;;;;;;;-2.51;100.00;96245.53;5056958;28;20711;-72
2021/01/15 01:47:48;;;;;;;14.77;4.90;;;;;;;-2.42;100.00;96247.50;5057215;28;20204;-72
2021/01/15 01:50:15;;;;;;;8.07;4.70;;;;;;;-2.56;100.00;96251.91;5057570;28;20883;-72
2021/01/15 01:52:42;;;;;;;12.33;5.13;;;;;;;-2.41;100.00;96246.59;5057358;28;20200;-72
2021/01/15 01:55:09;;;;;;;11.03;5.10;;;;;;;-2.38;100.00;96247.22;5056309;28;20223;-72
2021/01/15 01:57:35;;;;;;;9.93;4.90;;;;;;;-2.39;100.00;96248.13;5057448;28;20209;-72
2021/01/15 02:00:01;;;;;;;10.37;4.60;;;;;;;-2.38;100.00;96254.97;5057114;28;20242;-72
2021/01/15 02:02:27;;;;;;;13.63;5.13;;;;;;;-2.27;100.00;96252.50;5057107;28;20205;-72
2021/01/15 02:04:53;;;;;;;8.10;4.73;;;;;;;-2.13;100.00;96252.41;5056377;28;20216;-72
2021/01/15 02:07:21;;;;;;;9.33;4.63;;;;;;;-2.38;100.00;96257.53;5056781;28;20631;-72
2021/01/15 02:09:54;;;;;;;11.67;4.40;;;;;;;-2.58;100.00;96253.75;5057024;28;20376;-72
2021/01/15 02:12:33;;;;;;;8.93;4.97;;;;;;;-2.94;100.00;96261.22;5056783;28;20219;-72
2021/01/15 02:15:04;;;;;;;10.60;4.60;;;;;;;-3.27;100.00;96260.78;5056752;28;20216;-72
2021/01/15 02:17:35;;;;;;;7.03;3.83;;;;;;;-3.12;100.00;96266.72;5056772;28;20489;-71
2021/01/15 02:20:21;;;;;;;8.20;4.30;;;;;;;-2.92;100.00;96260.22;5056429;28;20236;-71
2021/01/15 02:22:58;;;;;;;11.43;4.97;;;;;;;-2.80;100.00;96249.16;5056606;28;20204;-71
2021/01/15 02:26:07;;;;;;;9.87;4.97;;;;;;;-2.68;100.00;96260.44;5056418;28;20602;-71
2021/01/15 02:29:00;;;;;;;9.53;4.53;;;;;;;-2.63;100.00;96253.25;5056544;28;20208;-71
2021/01/15 02:31:56;;;;;;;9.90;4.87;;;;;;;-2.55;100.00;96256.97;5057100;28;20196;-71
2021/01/15 02:34:29;;;;;;;12.50;5.17;;;;;;;-2.33;100.00;96254.66;5055926;28;20247;-71
2021/01/15 02:37:03;;;;;;;11.87;4.57;;;;;;;-2.42;100.00;96259.59;5055673;28;20228;-72
2021/01/15 02:39:41;;;;;;;9.67;4.90;;;;;;;-2.69;100.00;96261.34;5057431;28;20211;-71
2021/01/15 02:42:09;;;;;;;10.17;5.50;;;;;;;-3.07;100.00;96256.97;5057099;28;20201;-71
2021/01/15 02:44:39;;;;;;;9.30;5.07;;;;;;;-2.93;100.00;96258.59;5056261;28;20616;-71
2021/01/15 02:47:07;;;;;;;9.07;5.07;;;;;;;-2.79;100.00;96257.69;5055860;28;20274;-71
2021/01/15 02:49:35;;;;;;;9.53;5.20;;;;;;;-2.81;100.00;96260.38;5056540;28;21191;-72
2021/01/15 02:52:05;;;;;;;11.80;5.23;;;;;;;-2.75;100.00;96261.72;5056315;28;20249;-71
2021/01/15 02:54:33;;;;;;;9.83;5.23;;;;;;;-2.74;100.00;96258.25;5055986;28;20204;-72
2021/01/15 02:56:59;;;;;;;10.27;5.40;;;;;;;-2.79;100.00;96261.13;5055862;28;20199;-71
2021/01/15 02:59:25;;;;;;;10.97;5.57;;;;;;;-3.13;100.00;96270.22;5056505;28;20203;-71
2021/01/15 03:01:57;;;;;;;14.63;5.40;;;;;;;-3.17;100.00;96268.75;5056405;28;20255;-71
2021/01/15 03:04:30;;;;;;;12.07;5.67;;;;;;;-3.62;100.00;96280.09;5056184;28;20663;-71
2021/01/15 03:06:59;;;;;;;15.63;5.90;;;;;;;-3.34;100.00;96274.94;5053681;28;21005;-71
2021/01/15 03:09:27;;;;;;;11.27;5.67;;;;;;;-3.32;100.00;96275.69;5056519;28;20223;-71
2021/01/15 03:11:54;;;;;;;12.80;5.80;;;;;;;-3.18;100.00;96275.66;5056549;28;20196;-70
2021/01/15 03:14:22;;;;;;;14.63;6.77;;;;;;;-3.16;100.00;96280.72;5055973;28;21254;-70
2021/01/15 03:16:50;;;;;;;14.07;6.33;;;;;;;-3.49;100.00;96286.19;5055484;28;20212;-71
2021/01/15 03:19:18;;;;;;;18.10;7.10;;;;;;;-3.47;100.00;96292.03;5056652;28;20192;-72
2021/01/15 03:21:44;;;;;;;13.73;6.37;;;;;;;-3.46;100.00;96298.03;5056050;28;20211;-72
2021/01/15 03:24:12;;;;;;;12.03;6.80;;;;;;;-3.50;100.00;96297.38;5056348;28;20208;-71
2021/01/15 03:26:38;;;;;;;17.47;7.23;;;;;;;-3.56;100.00;96296.94;5055238;28;20234;-71
2021/01/15 03:29:04;;;;;;;13.67;7.00;;;;;;;-3.65;100.00;96292.34;5056137;28;20999;-71
2021/01/15 03:31:30;;;;;;;15.27;6.73;;;;;;;-3.86;100.00;96300.47;5056005;28;20234;-71
2021/01/15 03:33:56;;;;;;;12.50;7.00;;;;;;;-3.49;100.00;96298.22;5057372;28;20196;-71
2021/01/15 03:36:22;;;;;;;14.23;7.40;;;;;;;-3.25;100.00;96291.59;5059001;28;20225;-71
2021/01/15 03:38:48;;;;;;;16.13;7.00;;;;;;;-3.28;100.00;96295.16;5059976;28;20295;-71
2021/01/15 03:41:15;;;;;;;16.03;7.00;;;;;;;-3.10;100.00;96300.97;5059778;28;20196;-71
2021/01/15 03:43:41;;;;;;;12.17;6.37;;;;;;;-3.10;100.00;96299.19;5059517;28;20212;-71
2021/01/15 03:46:07;;;;;;;14.97;7.03;;;;;;;-3.04;100.00;96306.56;5058718;28;20223;-71
2021/01/15 03:48:33;;;;;;;16.00;6.63;;;;;;;-3.07;100.00;96304.16;5059573;28;20196;-71
2021/01/15 03:50:59;;;;;;;13.63;7.23;;;;;;;-3.26;100.00;96306.22;5059532;28;20301;-71
2021/01/15 03:53:24;;;;;;;15.07;7.27;;;;;;;-3.29;100.00;96298.66;5059347;28;20286;-71
2021/01/15 03:55:50;;;;;;;12.40;6.13;;;;;;;-3.60;100.00;96308.34;5059875;28;20327;-71
2021/01/15 03:58:17;;;;;;;13.77;6.90;;;;;;;-3.49;100.00;96305.94;5059645;28;21238;-71
2021/01/15 04:00:43;;;;;;;12.17;7.10;;;;;;;-3.45;100.00;96304.81;5058711;28;20211;-71
2021/01/15 04:03:09;;;;;;;14.40;6.37;;;;;;;-3.41;100.00;96307.13;5059638;28;20261;-71
2021/01/15 04:05:35;;;;;;;12.43;7.00;;;;;;;-3.43;100.00;96308.97;5058395;28;20232;-71
2021/01/15 04:08:01;;;;;;;13.90;6.90;;;;;;;-3.41;100.00;96302.00;5059389;28;20201;-71
2021/01/15 04:10:27;;;;;;;15.40;7.23;;;;;;;-3.41;100.00;96302.00;5059088;28;20226;-71
2021/01/15 04:12:53;;;;;;;14.33;7.10;;;;;;;-3.51;100.00;96308.59;5059185;28;20299;-71
2021/01/15 04:15:20;;;;;;;12.43;6.50;;;;;;;-3.54;100.00;96308.78;5058330;28;20339;-71
2021/01/15 04:17:46;;;;;;;14.57;7.13;;;;;;;-3.48;100.00;96305.84;5059006;28;20305;-71
2021/01/15 04:20:14;;;;;;;14.73;7.10;;;;;;;-3.51;100.00;96310.38;5059196;28;20699;-71
2021/01/15 04:22:42;;;;;;;12.53;6.50;;;;;;;-3.58;100.00;96314.19;5059005;28;20270;-71
2021/01/15 04:25:09;;;;;;;12.73;7.00;;;;;;;-3.55;100.00;96312.28;5058592;28;20231;-71
2021/01/15 04:27:36;;;;;;;17.80;7.63;;;;;;;-3.41;100.00;96314.03;5059241;28;20208;-72
2021/01/15 04:30:05;;;;;;;13.20;7.10;;;;;;;-3.47;100.00;96317.81;5058705;28;20224;-72
2021/01/15 04:32:32;;;;;;;16.50;7.20;;;;;;;-3.45;100.00;96320.28;5058656;28;20354;-71
2021/01/15 04:34:58;;;;;;;13.90;6.83;;;;;;;-3.42;100.00;96325.25;5059031;28;20254;-72
2021/01/15 04:37:24;;;;;;;14.23;7.43;;;;;;;-3.60;100.00;96327.19;5058515;28;20264;-72
2021/01/15 04:39:50;;;;;;;14.10;7.27;;;;;;;-3.59;100.00;96331.41;5058579;28;20200;-72
2021/01/15 04:42:17;;;;;;;16.83;7.30;;;;;;;-3.56;100.00;96328.66;5058993;28;20362;-72
2021/01/15 04:44:46;;;;;;;13.67;6.67;;;;;;;-3.50;100.00;96325.72;5057977;28;20210;-71
2021/01/15 04:47:12;;;;;;;12.87;7.03;;;;;;;-3.60;100.00;96328.94;5057315;28;20210;-71
2021/01/15 04:49:40;;;;;;;12.77;6.63;;;;;;;-3.61;100.00;96330.66;5058173;28;20233;-71
2021/01/15 04:52:12;;;;;;;13.10;7.40;;;;;;;-3.72;100.00;96331.41;5058995;28;20218;-71
2021/01/15 04:54:39;;;;;;;12.97;6.90;;;;;;;-4.05;100.00;96343.63;5057921;28;20208;-71
2021/01/15 04:57:06;;;;;;;14.27;7.43;;;;;;;-3.85;100.00;96341.56;5058195;28;20211;-71
2021/01/15 04:59:42;;;;;;;16.23;8.00;;;;;;;-3.76;100.00;96338.47;5058332;28;20202;-71
2021/01/15 05:02:09;;;;;;;19.13;8.47;;;;;;;-3.76;100.00;96347.94;5058359;28;20262;-71
2021/01/15 05:04:36;;;;;;;14.43;7.80;;;;;;;-3.96;100.00;96348.25;5058220;28;20211;-71
2021/01/15 05:07:04;;;;;;;14.10;7.80;;;;;;;-4.01;100.00;96355.41;5057628;28;20204;-71
2021/01/15 05:09:38;;;;;;;17.07;7.80;;;;;;;-4.06;100.00;96362.53;5057345;28;20245;-71
2021/01/15 05:12:07;;;;;;;17.33;7.87;;;;;;;-4.06;100.00;96352.25;5058990;28;20691;-71
2021/01/15 05:14:34;;;;;;;16.13;7.63;;;;;;;-4.54;100.00;96354.19;5058450;28;20207;-71
2021/01/15 05:17:02;;;;;;;15.37;7.63;;;;;;;-4.56;100.00;96356.81;5056971;28;20953;-71
2021/01/15 05:19:28;;;;;;;15.57;8.07;;;;;;;-4.53;100.00;96361.81;5057737;28;20302;-71
2021/01/15 05:21:54;;;;;;;14.67;8.00;;;;;;;-4.63;100.00;96358.09;5058404;28;20203;-71
2021/01/15 05:24:21;;;;;;;19.07;8.60;;;;;;;-4.45;100.00;96369.94;5057492;28;20198;-71
2021/01/15 05:26:47;;;;;;;20.40;8.63;;;;;;;-4.68;100.00;96372.94;5056476;28;20287;-71
2021/01/15 05:29:15;;;;;;;22.40;8.27;;;;;;;-4.77;100.00;96365.72;5058142;28;20252;-71
2021/01/15 05:31:52;;;;;;;17.77;9.07;;;;;;;-4.52;100.00;96368.63;5057703;28;20212;-71
2021/01/15 05:34:19;;;;;;;20.40;8.60;;;;;;;-4.38;100.00;96373.00;5057804;28;20196;-71
2021/01/15 05:36:46;;;;;;;16.30;8.27;;;;;;;-4.22;100.00;96384.91;5056891;28;20677;-71
2021/01/15 05:39:15;;;;;;;20.53;9.40;;;;;;;-4.02;100.00;96374.31;5057518;28;20269;-71
2021/01/15 05:41:42;;;;;;;23.40;10.00;;;;;;;-3.84;100.00;96391.31;5057415;28;20219;-71
2021/01/15 05:44:09;;;;;;;20.57;9.63;;;;;;;-3.64;100.00;96380.69;5057800;28;20253;-71
2021/01/15 05:46:35;;;;;;;21.63;9.60;;;;;;;-3.76;100.00;96389.13;5056405;28;20228;-71
2021/01/15 05:49:09;;;;;;;30.10;11.80;;;;;;;-3.67;100.00;96396.31;5057173;28;20630;-71
2021/01/15 05:51:37;;;;;;;24.70;11.07;;;;;;;-3.67;100.00;96401.47;5057537;28;20335;-71
2021/01/15 05:54:05;;;;;;;26.43;10.93;;;;;;;-3.55;100.00;96414.47;5057755;28;20266;-71
2021/01/15 05:56:48;;;;;;;29.70;12.87;;;;;;;-3.64;100.00;96403.84;5055815;28;20224;-71
2021/01/15 05:59:15;;;;;;;30.80;12.47;;;;;;;-3.59;100.00;96411.22;5057094;28;20200;-71
2021/01/15 06:01:48;;;;;;;29.83;11.90;;;;;;;-3.83;100.00;96418.69;5057230;28;20208;-71
2021/01/15 06:04:16;;;;;;;28.47;11.53;;;;;;;-3.78;100.00;96408.97;5056835;28;20222;-71
2021/01/15 06:06:44;;;;;;;27.30;11.07;;;;;;;-3.88;100.00;96428.41;5056331;28;20234;-71
2021/01/15 06:09:11;;;;;;;27.67;12.17;;;;;;;-3.74;100.00;96424.16;5055859;28;20295;-71
2021/01/15 06:11:39;;;;;;;30.07;11.73;;;;;;;-3.77;100.00;96428.66;5056332;28;20228;-71
2021/01/15 06:14:17;;;;;;;28.93;12.30;;;;;;;-3.69;100.00;96432.44;5057358;28;20207;-71
2021/01/15 06:16:43;;;;;;;27.13;12.07;;;;;;;-3.62;100.00;96432.00;5056435;28;20220;-71
2021/01/15 06:19:09;;;;;;;30.23;11.37;;;;;;;-3.62;100.00;96434.56;5056491;28;20604;-71
2021/01/15 06:21:35;;;;;;;28.67;11.83;;;;;;;-3.47;100.00;96436.25;5056976;28;20285;-71
2021/01/15 06:24:06;;;;;;;34.53;12.53;;;;;;;-3.58;100.00;96443.81;5058193;28;20204;-71
2021/01/15 06:26:37;;;;;;;32.10;11.80;;;;;;;-3.38;100.00;96440.88;5056208;28;20638;-71
2021/01/15 06:29:13;;;;;;;28.63;11.57;;;;;;;-3.39;100.00;96451.28;5056678;28;20193;-71
2021/01/15 06:31:48;;;;;;;30.03;11.50;;;;;;;-3.40;100.00;96445.31;5057009;28;20227;-71
2021/01/15 06:34:17;;;;;;;31.27;12.50;;;;;;;-3.36;100.00;96451.09;5056769;28;20231;-71
2021/01/15 06:36:51;;;;;;;34.27;12.93;;;;;;;-3.35;100.00;96451.00;5056049;28;20228;-71
2021/01/15 06:39:18;;;;;;;30.57;10.67;;;;;;;-3.62;100.00;96451.78;5056566;28;20207;-71
2021/01/15 06:41:44;;;;;;;37.17;13.30;;;;;;;-3.58;100.00;96458.41;5056466;28;20248;-71
2021/01/15 06:44:12;;;;;;;36.67;13.27;;;;;;;-3.61;100.00;96458.59;5056422;28;20215;-71
2021/01/15 06:46:44;;;;;;;38.80;14.17;;;;;;;-3.56;100.00;96462.53;5055933;28;20231;-72
2021/01/15 06:49:18;;;;;;;37.43;13.77;;;;;;;-3.76;100.00;96468.94;5056507;28;20200;-72
2021/01/15 06:51:53;;;;;;;45.40;14.87;;;;;;;-3.61;100.00;96474.03;5056632;28;20203;-72
2021/01/15 06:54:24;;;;;;;28.67;10.33;;;;;;;-3.74;100.00;96479.94;5056694;28;20290;-72
2021/01/15 06:56:53;;;;;;;44.10;13.70;;;;;;;-3.72;100.00;96475.56;5055651;28;20205;-72
2021/01/15 06:59:32;;;;;;;33.93;11.83;;;;;;;-3.67;100.00;96484.66;5056612;28;20710;-72
2021/01/15 07:02:09;;;;;;;41.33;14.63;;;;;;;-3.70;100.00;96478.84;5056375;28;20227;-72
2021/01/15 07:04:49;;;;;;;38.33;13.83;;;;;;;-3.62;100.00;96493.78;5056185;28;20208;-72
2021/01/15 07:07:16;;;;;;;35.73;11.63;;;;;;;-3.73;100.00;96495.28;5055568;28;20197;-72
2021/01/15 07:09:44;;;;;;;33.77;12.07;;;;;;;-3.62;100.00;96498.94;5058869;28;20690;-72
2021/01/15 07:12:12;;;;;;;44.43;14.27;;;;;;;-3.59;100.00;96503.09;5060424;28;20233;-72
2021/01/15 07:14:44;;;;;;;41.33;14.30;;;;;;;-3.63;100.00;96503.34;5060314;28;20218;-72
2021/01/15 07:17:15;;;;;;;46.57;15.13;;;;;;;-3.60;100.00;96512.56;5059481;28;20203;-72
2021/01/15 07:19:43;;;;;;;51.13;15.50;;;;;;;-3.54;100.00;96517.38;5060628;28;20208;-72
2021/01/15 07:22:11;;;;;;;47.10;16.07;;;;;;;-3.52;100.00;96520.69;5060943;28;20256;-72
2021/01/15 07:24:39;;;;;;;42.13;14.73;;;;;;;-3.41;100.00;96518.34;5059594;28;20215;-72
2021/01/15 07:27:09;;;;;;;45.10;15.17;;;;;;;-3.39;100.00;96526.78;5059519;28;20314;-72
2021/01/15 07:29:39;;;;;;;43.47;14.90;;;;;;;-3.18;100.00;96519.59;5060215;28;20292;-72
2021/01/15 07:32:09;;;;;;;38.37;15.00;;;;;;;-3.18;100.00;96517.84;5060120;28;20222;-72
2021/01/15 07:34:38;;;;;;;44.07;15.00;;;;;;;-3.15;100.00;96522.81;5059983;28;20224;-72
2021/01/15 07:37:18;;;;;;;47.33;15.40;;;;;;;-3.10;100.00;96522.56;5059094;28;20202;-72
2021/01/15 07:39:59;;;;;;;46.10;14.83;;;;;;;-2.93;100.00;96523.22;5059345;28;20204;-72
2021/01/15 07:42:38;;;;;;;44.27;14.50;;;;;;;-2.94;100.00;96524.16;5060924;28;20506;-72
2021/01/15 07:45:05;;;;;;;42.67;15.47;;;;;;;-2.78;100.00;96520.59;5058737;28;20254;-71
2021/01/15 07:47:37;;;;;;;36.93;13.97;;;;;;;-2.64;100.00;96532.66;5059683;28;20628;-72
2021/01/15 07:50:06;;;;;;;38.73;13.77;;;;;;;-2.61;100.00;96533.31;5059915;28;21263;-72
2021/01/15 07:52:33;;;;;;;49.80;18.03;;;;;;;-2.58;100.00;96534.88;5059765;28;20292;-72
2021/01/15 07:55:02;;;;;;;41.10;15.60;;;;;;;-2.53;100.00;96538.00;5059111;28;20220;-72
2021/01/15 07:57:30;;;;;;;40.17;13.83;;;;;;;-2.58;100.00;96543.44;5059601;28;20215;-72
2021/01/15 07:59:58;;;;;;;36.20;13.53;;;;;;;-2.68;100.00;96536.34;5059748;28;20759;-72
2021/01/15 08:02:24;;;;;;;40.93;15.47;;;;;;;-2.64;100.00;96536.06;5059191;28;21164;-72
2021/01/15 08:04:50;;;;;;;39.27;14.57;;;;;;;-2.56;100.00;96545.94;5059371;28;20228;-72
2021/01/15 08:07:33;;;;;;;39.90;14.70;;;;;;;-2.76;100.00;96551.44;5058979;28;20197;-72
2021/01/15 08:09:59;;;;;;;39.33;14.23;;;;;;;-2.74;100.00;96553.00;5059271;28;20224;-71
2021/01/15 08:12:24;;;;;;;43.93;14.93;;;;;;;-2.65;100.00;96551.63;5059689;28;20208;-72
2021/01/15 08:14:50;;;;;;;51.27;17.20;;;;;;;-2.68;100.00;96551.81;5059367;28;20251;-72
2021/01/15 08:17:25;;;;;;;49.57;17.63;;;;;;;-2.46;100.00;96557.38;5058488;28;20207;-72
2021/01/15 08:19:51;;;;;;;52.83;17.97;;;;;;;-2.52;100.00;96562.88;5059096;28;20199;-72
2021/01/15 08:22:19;;;;;;;49.00;17.53;;;;;;;-2.47;100.00;96571.19;5059509;28;20258;-72
2021/01/15 08:24:46;;;;;;;51.73;17.03;;;;;;;-2.48;100.00;96569.50;5059126;28;20231;-72
2021/01/15 08:27:16;;;;;;;48.30;16.50;;;;;;;-2.58;100.00;96566.66;5058121;28;20203;-72
2021/01/15 08:29:42;;;;;;;42.00;14.93;;;;;;;-2.53;100.00;96581.84;5058874;28;20209;-72
2021/01/15 08:32:08;;;;;;;45.73;16.70;;;;;;;-2.55;100.00;96583.72;5058975;28;20310;-72
2021/01/15 08:34:35;;;;;;;41.00;15.73;;;;;;;-2.44;100.00;96578.72;5058815;28;20861;-72
2021/01/15 08:37:03;;;;;;;44.33;16.50;;;;;;;-2.39;100.00;96580.94;5058246;28;20196;-72
2021/01/15 08:39:41;;;;;;;41.07;15.23;;;;;;;-2.36;100.00;96585.91;5058440;28;20204;-72
2021/01/15 08:42:08;;;;;;;43.97;16.20;;;;;;;-2.29;100.00;96584.66;5058372;28;20258;-72
2021/01/15 08:44:35;;;;;;;56.30;19.80;;;;;;;-2.28;100.00;96583.72;5058512;28;20201;-72
2021/01/15 08:47:03;;;;;;;38.50;15.30;;;;;;;-2.29;100.00;96582.06;5058834;28;20204;-72
2021/01/15 08:49:29;;;;;;;44.43;15.97;;;;;;;-2.25;100.00;96588.69;5057144;28;20201;-72
2021/01/15 08:51:57;;;;;;;37.23;14.90;;;;;;;-2.18;100.00;96594.31;5057951;28;20217;-72
2021/01/15 08:54:24;;;;;;;38.03;15.10;;;;;;;-2.09;100.00;96604.91;5059348;28;20282;-72
2021/01/15 08:56:51;;;;;;;36.93;15.10;;;;;;;-2.13;100.00;96598.28;5058843;28;20208;-72
2021/01/15 08:59:26;;;;;;;46.00;17.53;;;;;;;-2.12;100.00;96606.88;5057569;28;20226;-72
2021/01/15 09:01:53;;;;;;;42.30;15.30;;;;;;;-2.35;100.00;96612.56;5058098;28;20249;-72
2021/01/15 09:04:23;;;;;;;40.60;14.67;;;;;;;-2.26;100.00;96618.00;5058697;28;20322;-72
2021/01/15 09:06:52;;;;;;;40.40;14.30;;;;;;;-2.37;100.00;96623.00;5057486;28;20275;-72
2021/01/15 09:09:20;;;;;;;36.57;14.77;;;;;;;-2.31;100.00;96629.53;5058139;28;20212;-72
2021/01/15 09:11:48;;;;;;;42.40;14.67;;;;;;;-2.54;100.00;96626.66;5058255;28;20223;-72
2021/01/15 09:14:18;;;;;;;32.47;13.47;;;;;;;-2.45;100.00;96629.50;5057988;28;20290;-72
2021/01/15 09:16:46;;;;;;;34.77;12.57;;;;;;;-2.82;100.00;96639.47;5057129;28;20217;-72
2021/01/15 09:19:12;;;;;;;40.70;15.93;;;;;;;-2.77;100.00;96632.31;5058178;28;20204;-72
2021/01/15 09:21:49;;;;;;;37.43;14.33;;;;;;;-2.65;100.00;96644.47;5057954;28;20219;-72
2021/01/15 09:24:16;;;;;;;37.80;14.43;;;;;;;-2.40;100.00;96642.97;5058115;28;20566;-72
2021/01/15 09:26:42;;;;;;;23.20;10.20;;;;;;;-2.42;100.00;96643.06;5056792;28;20231;-72
2021/01/15 09:29:09;;;;;;;29.70;12.50;;;;;;;-2.62;100.00;96649.44;5057778;28;20206;-72
2021/01/15 09:31:36;;;;;;;37.80;13.83;;;;;;;-2.70;100.00;96651.66;5056764;28;20224;-72
2021/01/15 09:34:02;;;;;;;34.27;13.90;;;;;;;-2.56;100.00;96652.50;5057986;28;20205;-72
2021/01/15 09:36:28;;;;;;;37.00;14.63;;;;;;;-2.28;100.00;96652.56;5056888;28;20242;-72
2021/01/15 09:38:57;;;;;;;31.00;12.67;;;;;;;-2.31;100.00;96656.16;5057796;28;20283;-72
2021/01/15 09:41:24;;;;;;;26.93;10.47;;;;;;;-2.44;100.00;96662.13;5057511;28;20242;-72
2021/01/15 09:43:53;;;;;;;27.53;12.10;;;;;;;-2.43;100.00;96668.09;5057629;28;20212;-72
2021/01/15 09:46:20;;;;;;;35.40;13.30;;;;;;;-2.33;100.00;96668.31;5056532;28;20216;-72
2021/01/15 09:48:46;;;;;;;35.13;12.63;;;;;;;-2.42;100.00;96668.00;5057237;28;20203;-72
2021/01/15 09:51:13;;;;;;;32.23;12.47;;;;;;;-2.39;100.00;96681.56;5057467;28;20220;-72
2021/01/15 09:53:39;;;;;;;31.60;13.00;;;;;;;-2.37;100.00;96682.34;5057105;28;20262;-72
2021/01/15 09:56:05;;;;;;;36.43;14.23;;;;;;;-2.46;100.00;96676.84;5056299;28;20216;-72
2021/01/15 09:58:31;;;;;;;32.63;13.13;;;;;;;-2.32;100.00;96679.47;5057873;28;20207;-72
2021/01/15 10:00:57;;;;;;;34.53;13.73;;;;;;;-2.17;100.00;96678.56;5056837;28;20197;-72
2021/01/15 10:03:23;;;;;;;35.23;13.97;;;;;;;-2.05;100.00;96681.28;5057093;28;20228;-72
2021/01/15 10:05:49;;;;;;;33.93;13.03;;;;;;;-1.96;100.00;96678.16;5056824;28;20278;-72
2021/01/15 10:08:15;;;;;;;36.20;14.43;;;;;;;-1.86;100.00;96679.22;5057682;28;20659;-72
2021/01/15 10:10:41;;;;;;;40.47;14.33;;;;;;;-1.90;100.00;96690.66;5056688;28;20280;-72
2021/01/15 10:13:07;;;;;;;26.37;8.13;;;;;;;-2.19;100.00;96685.56;5056721;28;20208;-74
2021/01/15 10:15:35;;;;;;;30.53;12.90;;;;;;;-2.49;100.00;96692.53;5056770;28;20691;-71
2021/01/15 10:18:01;;;;;;;33.17;13.60;;;;;;;-2.38;100.00;96696.16;5056531;28;20205;-72
2021/01/15 10:20:27;;;;;;;37.73;14.87;;;;;;;-2.13;100.00;96685.22;5056765;28;20257;-72
2021/01/15 10:22:53;;;;;;;32.33;12.93;;;;;;;-2.07;100.00;96690.84;5057436;28;20204;-72
2021/01/15 10:25:20;;;;;;;32.77;13.40;;;;;;;-2.18;100.00;96693.22;5055794;28;20315;-71
2021/01/15 10:27:46;;;;;;;35.67;14.10;;;;;;;-1.90;100.00;96693.25;5056603;28;20700;-71
2021/01/15 10:30:13;;;;;;;31.53;13.97;;;;;;;-1.90;100.00;96693.25;5056690;28;20237;-71
2021/01/15 10:32:39;;;;;;;35.00;15.50;;;;;;;-1.92;100.00;96689.94;5056508;28;20219;-71
2021/01/15 10:35:06;;;;;;;33.23;13.67;;;;;;;-1.78;100.00;96682.19;5055884;28;20284;-71
2021/01/15 10:37:32;;;;;;;30.93;13.03;;;;;;;-1.94;100.00;96694.34;5056971;28;20199;-72
2021/01/15 10:39:58;;;;;;;28.77;12.73;;;;;;;-2.23;100.00;96684.94;5056486;28;20235;-71
2021/01/15 10:42:27;;;;;;;33.27;13.10;;;;;;;-2.33;100.00;96695.88;5056203;28;20692;-71
2021/01/15 10:44:53;;;;;;;35.60;14.13;;;;;;;-2.16;100.00;96695.72;5055736;28;20227;-72
2021/01/15 10:47:18;;;;;;;37.00;14.77;;;;;;;-2.27;100.00;96696.34;5056293;28;20203;-71
2021/01/15 10:49:44;;;;;;;33.40;13.60;;;;;;;-2.34;100.00;96700.19;5056389;28;20687;-72
2021/01/15 10:52:12;;;;;;;33.93;14.53;;;;;;;-2.64;100.00;96705.47;5056155;28;20228;-71
2021/01/15 10:54:38;;;;;;;36.60;15.57;;;;;;;-2.46;100.00;96699.25;5056733;28;20207;-71
2021/01/15 10:57:04;;;;;;;33.87;13.50;;;;;;;-2.53;100.00;96700.50;5055558;28;20343;-71
2021/01/15 10:59:31;;;;;;;39.57;14.67;;;;;;;-2.65;100.00;96701.22;5056548;28;20269;-71
2021/01/15 11:01:57;;;;;;;35.87;14.83;;;;;;;-2.80;100.00;96697.78;5056684;28;20203;-71
2021/01/15 11:04:23;;;;;;;36.70;15.57;;;;;;;-2.53;100.00;96701.34;5055986;28;20195;-71
2021/01/15 11:06:53;;;;;;;34.13;14.83;;;;;;;-2.60;100.00;96697.44;5055831;28;20227;-71
2021/01/15 11:09:20;;;;;;;38.43;15.63;;;;;;;-2.31;100.00;96699.19;5056636;28;20223;-71
2021/01/15 11:11:47;;;;;;;30.17;13.60;;;;;;;-2.16;100.00;96699.13;5055812;28;20224;-71
2021/01/15 11:14:13;;;;;;;29.50;12.87;;;;;;;-2.24;100.00;96703.91;5056099;28;20923;-71
2021/01/15 11:16:40;;;;;;;35.77;14.70;;;;;;;-2.19;100.00;96707.06;5057605;28;20225;-71
2021/01/15 11:19:06;;;;;;;32.10;13.33;;;;;;;-2.03;100.00;96699.25;5058051;28;20200;-71